sensor_id;sensor_type;location;lat;lon;timestamp;temperature;humidity
5881;DHT22;2966;52.598;10.928;2023-03-01T00:02:07;-4.00;99.90
5881;DHT22;2966;52.598;10.928;2023-03-01T00:04:34;-4.00;99.90
5881;DHT22;2966;52.598;10.928;2023-03-01T00:07:01;-4.00;99.90
5881;DHT22;2966;52.598;10.928;2023-03-01T00:09:28;-4.00;99.90
5881;DHT22;2966;52.598;10.928;2023-03-01T00:11:56;-4.00;99.90
5881;DHT22;2966;52.598;10.928;2023-03-01T00:14:22;-4.10;99.90
5881;DHT22;2966;52.598;10.928;2023-03-01T00:16:49;-4.10;99.90
5881;DHT22;2966;52.598;10.928;2023-03-01T00:19:17;-4.10;99.90
5881;DHT22;2966;52.598;10.928;2023-03-01T00:21:44;-4.10;99.90
5881;DHT22;2966;52.598;10.928;2023-03-01T00:24:12;-4.20;99.90
5881;DHT22;2966;52.598;10.928;2023-03-01T00:26:38;-4.20;99.90
5881;DHT22;2966;52.598;10.928;2023-03-01T00:29:07;-4.30;99.90
5881;DHT22;2966;52.598;10.928;2023-03-01T00:31:34;-4.30;99.90
5881;DHT22;2966;52.598;10.928;2023-03-01T00:34:03;-4.30;99.90
5881;DHT22;2966;52.598;10.928;2023-03-01T00:36:31;-4.20;99.90
5881;DHT22;2966;52.598;10.928;2023-03-01T00:38:58;-4.20;99.90
5881;DHT22;2966;52.598;10.928;2023-03-01T00:41:26;-4.20;99.90
5881;DHT22;2966;52.598;10.928;2023-03-01T00:43:54;-4.20;99.90
5881;DHT22;2966;52.598;10.928;2023-03-01T00:46:24;-4.10;99.90
5881;DHT22;2966;52.598;10.928;2023-03-01T00:48:52;-4.20;99.90
5881;DHT22;2966;52.598;10.928;2023-03-01T00:51:20;-4.20;99.90
5881;DHT22;2966;52.598;10.928;2023-03-01T00:53:50;-4.30;99.90
5881;DHT22;2966;52.598;10.928;2023-03-01T00:56:17;-4.30;99.90
5881;DHT22;2966;52.598;10.928;2023-03-01T00:58:44;-4.30;99.90
5881;DHT22;2966;52.598;10.928;2023-03-01T01:01:13;-4.40;99.90
5881;DHT22;2966;52.598;10.928;2023-03-01T01:03:46;-4.40;99.90
5881;DHT22;2966;52.598;10.928;2023-03-01T01:06:18;-4.40;99.90
5881;DHT22;2966;52.598;10.928;2023-03-01T01:08:45;-4.40;99.90
5881;DHT22;2966;52.598;10.928;2023-03-01T01:11:12;-4.40;99.90
5881;DHT22;2966;52.598;10.928;2023-03-01T01:13:40;-4.40;99.90
5881;DHT22;2966;52.598;10.928;2023-03-01T01:16:09;-4.40;99.90
5881;DHT22;2966;52.598;10.928;2023-03-01T01:18:36;-4.40;99.90
5881;DHT22;2966;52.598;10.928;2023-03-01T01:21:07;-4.50;99.90
5881;DHT22;2966;52.598;10.928;2023-03-01T01:23:34;-4.50;99.90
5881;DHT22;2966;52.598;10.928;2023-03-01T01:26:05;-4.50;99.90
5881;DHT22;2966;52.598;10.928;2023-03-01T01:28:32;-4.50;99.90
5881;DHT22;2966;52.598;10.928;2023-03-01T01:30:58;-4.50;99.90
5881;DHT22;2966;52.598;10.928;2023-03-01T01:33:25;-4.50;99.90
5881;DHT22;2966;52.598;10.928;2023-03-01T01:35:53;-4.60;99.90
5881;DHT22;2966;52.598;10.928;2023-03-01T01:38:21;-4.60;99.90
5881;DHT22;2966;52.598;10.928;2023-03-01T01:40:48;-4.60;99.90
5881;DHT22;2966;52.598;10.928;2023-03-01T01:43:19;-4.60;99.90
5881;DHT22;2966;52.598;10.928;2023-03-01T01:45:47;-4.60;99.90
5881;DHT22;2966;52.598;10.928;2023-03-01T01:48:18;-4.70;99.90
5881;DHT22;2966;52.598;10.928;2023-03-01T01:50:49;-4.70;99.90
5881;DHT22;2966;52.598;10.928;2023-03-01T01:53:21;-4.70;99.90
5881;DHT22;2966;52.598;10.928;2023-03-01T01:55:53;-4.80;99.90
5881;DHT22;2966;52.598;10.928;2023-03-01T01:58:24;-4.80;99.90
5881;DHT22;2966;52.598;10.928;2023-03-01T02:00:53;-4.80;99.90
5881;DHT22;2966;52.598;10.928;2023-03-01T02:03:25;-4.80;99.90
5881;DHT22;2966;52.598;10.928;2023-03-01T02:05:58;-4.80;99.90
5881;DHT22;2966;52.598;10.928;2023-03-01T02:08:32;-4.70;99.90
5881;DHT22;2966;52.598;10.928;2023-03-01T02:11:00;-4.70;99.90
5881;DHT22;2966;52.598;10.928;2023-03-01T02:13:30;-4.80;99.90
5881;DHT22;2966;52.598;10.928;2023-03-01T02:15:57;-4.70;99.90
5881;DHT22;2966;52.598;10.928;2023-03-01T02:18:24;-4.80;99.90
5881;DHT22;2966;52.598;10.928;2023-03-01T02:21:05;-4.80;99.90
5881;DHT22;2966;52.598;10.928;2023-03-01T02:23:36;-4.80;99.90
5881;DHT22;2966;52.598;10.928;2023-03-01T02:26:07;-4.80;99.90
5881;DHT22;2966;52.598;10.928;2023-03-01T02:28:42;-4.80;99.90
5881;DHT22;2966;52.598;10.928;2023-03-01T02:31:11;-4.80;99.90
5881;DHT22;2966;52.598;10.928;2023-03-01T02:33:58;-4.70;99.90
5881;DHT22;2966;52.598;10.928;2023-03-01T02:36:28;-4.70;99.90
5881;DHT22;2966;52.598;10.928;2023-03-01T02:38:57;-4.70;99.90
5881;DHT22;2966;52.598;10.928;2023-03-01T02:41:26;-4.70;99.90
5881;DHT22;2966;52.598;10.928;2023-03-01T02:43:56;-4.60;99.90
5881;DHT22;2966;52.598;10.928;2023-03-01T02:46:26;-4.50;99.90
5881;DHT22;2966;52.598;10.928;2023-03-01T02:48:57;-4.50;99.90
5881;DHT22;2966;52.598;10.928;2023-03-01T02:51:39;-4.50;99.90
5881;DHT22;2966;52.598;10.928;2023-03-01T02:54:18;-4.60;99.90
5881;DHT22;2966;52.598;10.928;2023-03-01T02:56:47;-4.70;99.90
5881;DHT22;2966;52.598;10.928;2023-03-01T02:59:19;-4.80;99.90
5881;DHT22;2966;52.598;10.928;2023-03-01T03:01:46;-4.90;99.90
5881;DHT22;2966;52.598;10.928;2023-03-01T03:04:15;-4.90;99.90
5881;DHT22;2966;52.598;10.928;2023-03-01T03:06:43;-5.00;99.90
5881;DHT22;2966;52.598;10.928;2023-03-01T03:09:11;-5.00;99.90
5881;DHT22;2966;52.598;10.928;2023-03-01T03:11:38;-5.10;99.90
5881;DHT22;2966;52.598;10.928;2023-03-01T03:14:06;-5.10;99.90
5881;DHT22;2966;52.598;10.928;2023-03-01T03:16:41;-5.10;99.90
5881;DHT22;2966;52.598;10.928;2023-03-01T03:19:08;-5.00;99.90
5881;DHT22;2966;52.598;10.928;2023-03-01T03:21:34;-5.00;99.90
5881;DHT22;2966;52.598;10.928;2023-03-01T03:24:01;-5.10;99.90
5881;DHT22;2966;52.598;10.928;2023-03-01T03:26:28;-5.10;99.90
5881;DHT22;2966;52.598;10.928;2023-03-01T03:28:55;-5.10;99.90
5881;DHT22;2966;52.598;10.928;2023-03-01T03:31:22;-5.10;99.90
5881;DHT22;2966;52.598;10.928;2023-03-01T03:33:50;-5.10;99.90
5881;DHT22;2966;52.598;10.928;2023-03-01T03:36:18;-5.10;99.90
5881;DHT22;2966;52.598;10.928;2023-03-01T03:38:45;-5.10;99.90
5881;DHT22;2966;52.598;10.928;2023-03-01T03:41:12;-5.10;99.90
5881;DHT22;2966;52.598;10.928;2023-03-01T03:43:40;-5.10;99.90
5881;DHT22;2966;52.598;10.928;2023-03-01T03:46:08;-5.10;99.90
5881;DHT22;2966;52.598;10.928;2023-03-01T03:48:36;-5.10;99.90
5881;DHT22;2966;52.598;10.928;2023-03-01T03:51:05;-5.10;99.90
5881;DHT22;2966;52.598;10.928;2023-03-01T03:53:32;-5.10;99.90
5881;DHT22;2966;52.598;10.928;2023-03-01T03:55:59;-5.20;99.90
5881;DHT22;2966;52.598;10.928;2023-03-01T03:58:27;-5.20;99.90
5881;DHT22;2966;52.598;10.928;2023-03-01T04:00:55;-5.20;99.90
5881;DHT22;2966;52.598;10.928;2023-03-01T04:03:23;-5.20;99.90
5881;DHT22;2966;52.598;10.928;2023-03-01T04:05:50;-5.30;99.90
5881;DHT22;2966;52.598;10.928;2023-03-01T04:08:19;-5.30;99.90
5881;DHT22;2966;52.598;10.928;2023-03-01T04:10:48;-5.30;99.90
5881;DHT22;2966;52.598;10.928;2023-03-01T04:13:18;-5.40;99.90
5881;DHT22;2966;52.598;10.928;2023-03-01T04:15:46;-5.40;99.90
5881;DHT22;2966;52.598;10.928;2023-03-01T04:18:14;-5.40;99.90
5881;DHT22;2966;52.598;10.928;2023-03-01T04:20:41;-5.40;99.90
5881;DHT22;2966;52.598;10.928;2023-03-01T04:23:11;-5.40;99.90
5881;DHT22;2966;52.598;10.928;2023-03-01T04:25:45;-5.40;99.90
5881;DHT22;2966;52.598;10.928;2023-03-01T04:28:15;-5.40;99.90
5881;DHT22;2966;52.598;10.928;2023-03-01T04:30:41;-5.40;99.90
5881;DHT22;2966;52.598;10.928;2023-03-01T04:33:10;-5.40;99.90
5881;DHT22;2966;52.598;10.928;2023-03-01T04:35:37;-5.40;99.90
5881;DHT22;2966;52.598;10.928;2023-03-01T04:38:06;-5.40;99.90
5881;DHT22;2966;52.598;10.928;2023-03-01T04:40:33;-5.40;99.90
5881;DHT22;2966;52.598;10.928;2023-03-01T04:43:01;-5.40;99.90
5881;DHT22;2966;52.598;10.928;2023-03-01T04:45:28;-5.50;99.90
5881;DHT22;2966;52.598;10.928;2023-03-01T04:47:55;-5.50;99.90
5881;DHT22;2966;52.598;10.928;2023-03-01T04:50:24;-5.50;99.90
5881;DHT22;2966;52.598;10.928;2023-03-01T04:52:51;-5.50;99.90
5881;DHT22;2966;52.598;10.928;2023-03-01T04:55:18;-5.50;99.90
5881;DHT22;2966;52.598;10.928;2023-03-01T04:57:46;-5.40;99.90
5881;DHT22;2966;52.598;10.928;2023-03-01T05:00:15;-5.40;99.90
5881;DHT22;2966;52.598;10.928;2023-03-01T05:02:50;-5.40;99.90
5881;DHT22;2966;52.598;10.928;2023-03-01T05:05:19;-5.40;99.90
5881;DHT22;2966;52.598;10.928;2023-03-01T05:07:47;-5.40;99.90
5881;DHT22;2966;52.598;10.928;2023-03-01T05:10:14;-5.40;99.90
5881;DHT22;2966;52.598;10.928;2023-03-01T05:12:41;-5.40;99.90
5881;DHT22;2966;52.598;10.928;2023-03-01T05:15:09;-5.50;99.90
5881;DHT22;2966;52.598;10.928;2023-03-01T05:17:39;-5.50;99.90
5881;DHT22;2966;52.598;10.928;2023-03-01T05:20:11;-5.60;99.90
5881;DHT22;2966;52.598;10.928;2023-03-01T05:22:37;-5.60;99.90
5881;DHT22;2966;52.598;10.928;2023-03-01T05:25:05;-5.70;99.90
5881;DHT22;2966;52.598;10.928;2023-03-01T05:27:34;-5.70;99.90
5881;DHT22;2966;52.598;10.928;2023-03-01T05:30:03;-5.70;99.90
5881;DHT22;2966;52.598;10.928;2023-03-01T05:32:41;-5.70;99.90
5881;DHT22;2966;52.598;10.928;2023-03-01T05:35:12;-5.70;99.90
5881;DHT22;2966;52.598;10.928;2023-03-01T05:37:40;-5.70;99.90
5881;DHT22;2966;52.598;10.928;2023-03-01T05:40:09;-5.70;99.90
5881;DHT22;2966;52.598;10.928;2023-03-01T05:42:42;-5.70;99.90
5881;DHT22;2966;52.598;10.928;2023-03-01T05:45:12;-5.60;99.90
5881;DHT22;2966;52.598;10.928;2023-03-01T05:47:42;-5.60;99.90
5881;DHT22;2966;52.598;10.928;2023-03-01T05:50:12;-5.70;99.90
5881;DHT22;2966;52.598;10.928;2023-03-01T05:52:39;-5.70;99.90
5881;DHT22;2966;52.598;10.928;2023-03-01T05:55:15;-5.70;99.90
5881;DHT22;2966;52.598;10.928;2023-03-01T05:57:42;-5.70;99.90
5881;DHT22;2966;52.598;10.928;2023-03-01T06:00:12;-5.70;99.90
5881;DHT22;2966;52.598;10.928;2023-03-01T06:02:41;-5.70;99.90
5881;DHT22;2966;52.598;10.928;2023-03-01T06:05:10;-5.70;99.90
5881;DHT22;2966;52.598;10.928;2023-03-01T06:07:37;-5.70;99.90
5881;DHT22;2966;52.598;10.928;2023-03-01T06:10:06;-5.60;99.90
5881;DHT22;2966;52.598;10.928;2023-03-01T06:12:35;-5.60;99.90
5881;DHT22;2966;52.598;10.928;2023-03-01T06:15:03;-5.60;99.90
5881;DHT22;2966;52.598;10.928;2023-03-01T06:17:33;-5.60;99.90
5881;DHT22;2966;52.598;10.928;2023-03-01T06:20:07;-5.60;99.90
5881;DHT22;2966;52.598;10.928;2023-03-01T06:22:34;-5.60;99.90
5881;DHT22;2966;52.598;10.928;2023-03-01T06:25:01;-5.60;99.90
5881;DHT22;2966;52.598;10.928;2023-03-01T06:27:30;-5.60;99.90
5881;DHT22;2966;52.598;10.928;2023-03-01T06:30:00;-5.60;99.90
5881;DHT22;2966;52.598;10.928;2023-03-01T06:32:27;-5.50;99.90
5881;DHT22;2966;52.598;10.928;2023-03-01T06:34:54;-5.50;99.90
5881;DHT22;2966;52.598;10.928;2023-03-01T06:37:22;-5.50;99.90
5881;DHT22;2966;52.598;10.928;2023-03-01T06:39:49;-5.40;99.90
5881;DHT22;2966;52.598;10.928;2023-03-01T06:42:15;-5.40;99.90
5881;DHT22;2966;52.598;10.928;2023-03-01T06:44:43;-5.40;99.90
5881;DHT22;2966;52.598;10.928;2023-03-01T06:47:11;-5.30;99.90
5881;DHT22;2966;52.598;10.928;2023-03-01T06:49:38;-5.20;99.90
5881;DHT22;2966;52.598;10.928;2023-03-01T06:52:07;-5.10;99.90
5881;DHT22;2966;52.598;10.928;2023-03-01T06:54:35;-5.10;99.90
5881;DHT22;2966;52.598;10.928;2023-03-01T06:57:02;-5.00;99.90
5881;DHT22;2966;52.598;10.928;2023-03-01T06:59:29;-4.80;99.90
5881;DHT22;2966;52.598;10.928;2023-03-01T07:01:59;-4.70;99.90
5881;DHT22;2966;52.598;10.928;2023-03-01T07:04:26;-4.50;99.90
5881;DHT22;2966;52.598;10.928;2023-03-01T07:06:54;-4.40;99.90
5881;DHT22;2966;52.598;10.928;2023-03-01T07:09:21;-4.30;99.90
5881;DHT22;2966;52.598;10.928;2023-03-01T07:11:50;-4.20;99.90
5881;DHT22;2966;52.598;10.928;2023-03-01T07:14:16;-4.00;99.90
5881;DHT22;2966;52.598;10.928;2023-03-01T07:16:45;-3.90;99.90
5881;DHT22;2966;52.598;10.928;2023-03-01T07:19:12;-3.80;99.90
5881;DHT22;2966;52.598;10.928;2023-03-01T07:21:38;-3.70;99.90
5881;DHT22;2966;52.598;10.928;2023-03-01T07:24:06;-3.40;99.90
5881;DHT22;2966;52.598;10.928;2023-03-01T07:26:33;-3.30;99.90
5881;DHT22;2966;52.598;10.928;2023-03-01T07:29:04;-3.10;99.90
5881;DHT22;2966;52.598;10.928;2023-03-01T07:31:31;-3.00;99.90
5881;DHT22;2966;52.598;10.928;2023-03-01T07:33:58;-2.80;99.90
5881;DHT22;2966;52.598;10.928;2023-03-01T07:36:25;-2.70;99.90
5881;DHT22;2966;52.598;10.928;2023-03-01T07:38:51;-2.60;99.90
5881;DHT22;2966;52.598;10.928;2023-03-01T07:41:18;-2.50;99.90
5881;DHT22;2966;52.598;10.928;2023-03-01T07:43:45;-2.40;99.90
5881;DHT22;2966;52.598;10.928;2023-03-01T07:46:13;-2.20;99.90
5881;DHT22;2966;52.598;10.928;2023-03-01T07:48:40;-2.10;99.90
5881;DHT22;2966;52.598;10.928;2023-03-01T07:51:07;-2.00;99.90
5881;DHT22;2966;52.598;10.928;2023-03-01T07:53:34;-1.90;99.90
5881;DHT22;2966;52.598;10.928;2023-03-01T07:56:02;-1.80;99.90
5881;DHT22;2966;52.598;10.928;2023-03-01T07:58:29;-1.60;99.90
5881;DHT22;2966;52.598;10.928;2023-03-01T08:00:56;-1.50;99.90
5881;DHT22;2966;52.598;10.928;2023-03-01T08:03:24;-1.40;99.90
5881;DHT22;2966;52.598;10.928;2023-03-01T08:05:51;-1.30;99.90
5881;DHT22;2966;52.598;10.928;2023-03-01T08:08:17;-1.20;99.90
5881;DHT22;2966;52.598;10.928;2023-03-01T08:10:47;-1.10;99.90
5881;DHT22;2966;52.598;10.928;2023-03-01T08:13:14;-1.00;99.90
5881;DHT22;2966;52.598;10.928;2023-03-01T08:15:40;-0.80;99.90
5881;DHT22;2966;52.598;10.928;2023-03-01T08:18:07;-0.70;99.90
5881;DHT22;2966;52.598;10.928;2023-03-01T08:20:35;-0.50;99.90
5881;DHT22;2966;52.598;10.928;2023-03-01T08:23:02;-0.40;99.90
5881;DHT22;2966;52.598;10.928;2023-03-01T08:25:29;-0.20;99.90
5881;DHT22;2966;52.598;10.928;2023-03-01T08:27:56;-0.10;99.90
5881;DHT22;2966;52.598;10.928;2023-03-01T08:30:23;0.00;99.90
5881;DHT22;2966;52.598;10.928;2023-03-01T08:32:50;0.10;99.90
5881;DHT22;2966;52.598;10.928;2023-03-01T08:35:18;0.20;99.90
5881;DHT22;2966;52.598;10.928;2023-03-01T08:37:46;0.30;99.90
5881;DHT22;2966;52.598;10.928;2023-03-01T08:40:14;0.40;99.90
5881;DHT22;2966;52.598;10.928;2023-03-01T08:42:41;0.50;99.90
5881;DHT22;2966;52.598;10.928;2023-03-01T08:45:09;0.60;99.90
5881;DHT22;2966;52.598;10.928;2023-03-01T08:47:37;0.70;99.90
5881;DHT22;2966;52.598;10.928;2023-03-01T08:50:05;0.90;99.90
5881;DHT22;2966;52.598;10.928;2023-03-01T08:52:32;1.00;99.90
5881;DHT22;2966;52.598;10.928;2023-03-01T08:55:00;1.10;99.90
5881;DHT22;2966;52.598;10.928;2023-03-01T08:57:27;1.20;99.90
5881;DHT22;2966;52.598;10.928;2023-03-01T08:59:54;1.30;99.90
5881;DHT22;2966;52.598;10.928;2023-03-01T09:02:21;1.40;99.90
5881;DHT22;2966;52.598;10.928;2023-03-01T09:04:48;1.50;99.90
5881;DHT22;2966;52.598;10.928;2023-03-01T09:07:18;1.60;99.90
5881;DHT22;2966;52.598;10.928;2023-03-01T09:09:44;1.70;99.90
5881;DHT22;2966;52.598;10.928;2023-03-01T09:12:13;1.80;99.90
5881;DHT22;2966;52.598;10.928;2023-03-01T09:14:40;1.90;99.90
5881;DHT22;2966;52.598;10.928;2023-03-01T09:17:07;1.90;99.90
5881;DHT22;2966;52.598;10.928;2023-03-01T09:19:34;2.10;99.90
5881;DHT22;2966;52.598;10.928;2023-03-01T09:22:02;2.10;99.90
5881;DHT22;2966;52.598;10.928;2023-03-01T09:24:31;2.30;99.90
5881;DHT22;2966;52.598;10.928;2023-03-01T09:26:58;2.30;99.90
5881;DHT22;2966;52.598;10.928;2023-03-01T09:29:26;2.50;99.90
5881;DHT22;2966;52.598;10.928;2023-03-01T09:31:55;2.60;99.90
5881;DHT22;2966;52.598;10.928;2023-03-01T09:34:23;2.70;99.90
5881;DHT22;2966;52.598;10.928;2023-03-01T09:36:50;2.70;99.90
5881;DHT22;2966;52.598;10.928;2023-03-01T09:39:17;2.80;99.90
5881;DHT22;2966;52.598;10.928;2023-03-01T09:41:49;2.80;99.90
5881;DHT22;2966;52.598;10.928;2023-03-01T09:44:23;2.90;99.90
5881;DHT22;2966;52.598;10.928;2023-03-01T09:46:55;3.00;99.90
5881;DHT22;2966;52.598;10.928;2023-03-01T09:49:24;3.10;99.90
5881;DHT22;2966;52.598;10.928;2023-03-01T09:51:57;3.20;99.90
5881;DHT22;2966;52.598;10.928;2023-03-01T09:54:25;3.20;99.90
5881;DHT22;2966;52.598;10.928;2023-03-01T09:57:04;3.30;99.90
5881;DHT22;2966;52.598;10.928;2023-03-01T09:59:40;3.40;99.90
5881;DHT22;2966;52.598;10.928;2023-03-01T10:02:23;3.40;99.90
5881;DHT22;2966;52.598;10.928;2023-03-01T10:04:52;3.50;99.90
5881;DHT22;2966;52.598;10.928;2023-03-01T10:07:30;3.70;99.90
5881;DHT22;2966;52.598;10.928;2023-03-01T10:09:59;3.80;99.90
5881;DHT22;2966;52.598;10.928;2023-03-01T10:12:34;3.80;99.90
5881;DHT22;2966;52.598;10.928;2023-03-01T10:15:05;3.90;99.90
5881;DHT22;2966;52.598;10.928;2023-03-01T10:17:41;4.10;99.90
5881;DHT22;2966;52.598;10.928;2023-03-01T10:20:19;4.10;99.90
5881;DHT22;2966;52.598;10.928;2023-03-01T10:22:46;4.20;99.90
5881;DHT22;2966;52.598;10.928;2023-03-01T10:25:17;4.20;99.90
5881;DHT22;2966;52.598;10.928;2023-03-01T10:27:51;4.10;99.90
5881;DHT22;2966;52.598;10.928;2023-03-01T10:30:21;4.20;99.90
5881;DHT22;2966;52.598;10.928;2023-03-01T10:32:51;4.20;99.90
5881;DHT22;2966;52.598;10.928;2023-03-01T10:35:21;4.30;99.90
5881;DHT22;2966;52.598;10.928;2023-03-01T10:38:03;4.30;99.90
5881;DHT22;2966;52.598;10.928;2023-03-01T10:40:30;4.30;99.90
5881;DHT22;2966;52.598;10.928;2023-03-01T10:42:58;4.30;99.90
5881;DHT22;2966;52.598;10.928;2023-03-01T10:45:37;4.30;99.90
5881;DHT22;2966;52.598;10.928;2023-03-01T10:48:12;4.40;99.90
5881;DHT22;2966;52.598;10.928;2023-03-01T10:50:40;4.50;99.90
5881;DHT22;2966;52.598;10.928;2023-03-01T10:53:23;4.50;99.90
5881;DHT22;2966;52.598;10.928;2023-03-01T10:55:58;4.60;99.90
5881;DHT22;2966;52.598;10.928;2023-03-01T10:58:26;4.60;99.90
5881;DHT22;2966;52.598;10.928;2023-03-01T11:00:55;4.70;99.90
5881;DHT22;2966;52.598;10.928;2023-03-01T11:03:26;4.80;99.90
5881;DHT22;2966;52.598;10.928;2023-03-01T11:05:59;5.00;99.90
5881;DHT22;2966;52.598;10.928;2023-03-01T11:08:40;5.00;99.90
5881;DHT22;2966;52.598;10.928;2023-03-01T11:11:17;5.00;99.90
5881;DHT22;2966;52.598;10.928;2023-03-01T11:13:54;5.20;99.90
5881;DHT22;2966;52.598;10.928;2023-03-01T11:16:33;5.10;99.90
5881;DHT22;2966;52.598;10.928;2023-03-01T11:19:15;5.20;99.90
5881;DHT22;2966;52.598;10.928;2023-03-01T11:21:54;5.10;99.90
5881;DHT22;2966;52.598;10.928;2023-03-01T11:24:26;5.20;99.90
5881;DHT22;2966;52.598;10.928;2023-03-01T11:26:55;5.30;99.90
5881;DHT22;2966;52.598;10.928;2023-03-01T11:29:29;5.30;99.90
5881;DHT22;2966;52.598;10.928;2023-03-01T11:32:00;5.40;99.90
5881;DHT22;2966;52.598;10.928;2023-03-01T11:34:38;5.30;99.90
5881;DHT22;2966;52.598;10.928;2023-03-01T11:37:13;5.20;99.90
5881;DHT22;2966;52.598;10.928;2023-03-01T11:39:46;5.30;99.90
5881;DHT22;2966;52.598;10.928;2023-03-01T11:42:18;5.30;99.90
5881;DHT22;2966;52.598;10.928;2023-03-01T11:44:48;5.40;99.90
5881;DHT22;2966;52.598;10.928;2023-03-01T11:47:33;5.40;99.90
5881;DHT22;2966;52.598;10.928;2023-03-01T11:50:18;5.50;99.90
5881;DHT22;2966;52.598;10.928;2023-03-01T11:52:56;5.50;99.90
5881;DHT22;2966;52.598;10.928;2023-03-01T11:55:36;5.50;99.90
5881;DHT22;2966;52.598;10.928;2023-03-01T11:58:19;5.50;99.90
5881;DHT22;2966;52.598;10.928;2023-03-01T12:01:16;5.50;99.90
5881;DHT22;2966;52.598;10.928;2023-03-01T12:03:53;5.50;99.90
5881;DHT22;2966;52.598;10.928;2023-03-01T12:06:38;5.60;99.90
5881;DHT22;2966;52.598;10.928;2023-03-01T12:09:30;5.60;99.90
5881;DHT22;2966;52.598;10.928;2023-03-01T12:12:27;5.60;99.90
5881;DHT22;2966;52.598;10.928;2023-03-01T12:18:13;5.50;99.90
5881;DHT22;2966;52.598;10.928;2023-03-01T12:20:47;5.70;99.90
5881;DHT22;2966;52.598;10.928;2023-03-01T12:23:48;5.70;99.90
5881;DHT22;2966;52.598;10.928;2023-03-01T12:26:23;5.60;99.90
5881;DHT22;2966;52.598;10.928;2023-03-01T12:29:02;5.60;99.90
5881;DHT22;2966;52.598;10.928;2023-03-01T12:31:44;5.60;99.90
5881;DHT22;2966;52.598;10.928;2023-03-01T12:34:37;5.60;99.90
5881;DHT22;2966;52.598;10.928;2023-03-01T12:37:24;5.60;99.90
5881;DHT22;2966;52.598;10.928;2023-03-01T12:40:13;5.60;99.90
5881;DHT22;2966;52.598;10.928;2023-03-01T12:42:48;5.50;99.90
5881;DHT22;2966;52.598;10.928;2023-03-01T12:48:34;5.60;99.90
5881;DHT22;2966;52.598;10.928;2023-03-01T12:51:05;5.60;99.90
5881;DHT22;2966;52.598;10.928;2023-03-01T12:53:36;5.60;99.90
5881;DHT22;2966;52.598;10.928;2023-03-01T12:56:10;5.60;99.90
5881;DHT22;2966;52.598;10.928;2023-03-01T12:58:44;5.60;99.90
5881;DHT22;2966;52.598;10.928;2023-03-01T13:01:22;5.60;99.90
5881;DHT22;2966;52.598;10.928;2023-03-01T13:04:13;5.60;99.90
5881;DHT22;2966;52.598;10.928;2023-03-01T13:06:44;5.60;99.90
5881;DHT22;2966;52.598;10.928;2023-03-01T13:09:23;5.60;99.90
5881;DHT22;2966;52.598;10.928;2023-03-01T13:11:52;5.60;99.90
5881;DHT22;2966;52.598;10.928;2023-03-01T13:14:45;5.50;99.90
5881;DHT22;2966;52.598;10.928;2023-03-01T13:17:31;5.60;99.90
5881;DHT22;2966;52.598;10.928;2023-03-01T13:19:59;5.60;99.90
5881;DHT22;2966;52.598;10.928;2023-03-01T13:22:29;5.60;99.90
5881;DHT22;2966;52.598;10.928;2023-03-01T13:25:13;5.60;99.90
5881;DHT22;2966;52.598;10.928;2023-03-01T13:27:41;5.60;99.90
5881;DHT22;2966;52.598;10.928;2023-03-01T13:30:39;5.50;99.90
5881;DHT22;2966;52.598;10.928;2023-03-01T13:33:37;5.60;99.90
5881;DHT22;2966;52.598;10.928;2023-03-01T13:36:07;5.60;99.90
5881;DHT22;2966;52.598;10.928;2023-03-01T13:38:38;5.70;99.90
5881;DHT22;2966;52.598;10.928;2023-03-01T13:41:05;5.70;99.90
5881;DHT22;2966;52.598;10.928;2023-03-01T13:43:35;5.70;99.90
5881;DHT22;2966;52.598;10.928;2023-03-01T13:46:09;5.70;99.90
5881;DHT22;2966;52.598;10.928;2023-03-01T13:48:38;5.80;99.90
5881;DHT22;2966;52.598;10.928;2023-03-01T13:51:08;5.80;99.90
5881;DHT22;2966;52.598;10.928;2023-03-01T13:53:40;5.80;99.90
5881;DHT22;2966;52.598;10.928;2023-03-01T13:56:09;5.80;99.90
5881;DHT22;2966;52.598;10.928;2023-03-01T13:58:48;5.70;99.90
5881;DHT22;2966;52.598;10.928;2023-03-01T14:01:25;5.80;99.90
5881;DHT22;2966;52.598;10.928;2023-03-01T14:03:52;5.80;99.90
5881;DHT22;2966;52.598;10.928;2023-03-01T14:06:21;5.80;99.90
5881;DHT22;2966;52.598;10.928;2023-03-01T14:08:51;5.70;99.90
5881;DHT22;2966;52.598;10.928;2023-03-01T14:14:38;5.80;99.90
5881;DHT22;2966;52.598;10.928;2023-03-01T14:20:00;5.70;99.90
5881;DHT22;2966;52.598;10.928;2023-03-01T14:22:33;5.70;99.90
5881;DHT22;2966;52.598;10.928;2023-03-01T14:25:02;5.80;99.90
5881;DHT22;2966;52.598;10.928;2023-03-01T14:27:34;5.80;99.90
5881;DHT22;2966;52.598;10.928;2023-03-01T14:30:10;5.90;99.90
5881;DHT22;2966;52.598;10.928;2023-03-01T14:32:38;5.90;99.90
5881;DHT22;2966;52.598;10.928;2023-03-01T14:35:20;5.90;99.90
5881;DHT22;2966;52.598;10.928;2023-03-01T14:37:46;5.90;99.90
5881;DHT22;2966;52.598;10.928;2023-03-01T14:40:22;5.90;99.90
5881;DHT22;2966;52.598;10.928;2023-03-01T14:42:49;6.10;99.90
5881;DHT22;2966;52.598;10.928;2023-03-01T14:45:19;6.10;99.90
5881;DHT22;2966;52.598;10.928;2023-03-01T14:47:46;6.20;99.90
5881;DHT22;2966;52.598;10.928;2023-03-01T14:50:23;6.20;99.90
5881;DHT22;2966;52.598;10.928;2023-03-01T14:52:52;6.20;99.90
5881;DHT22;2966;52.598;10.928;2023-03-01T14:55:21;6.20;99.90
5881;DHT22;2966;52.598;10.928;2023-03-01T14:57:51;6.30;99.90
5881;DHT22;2966;52.598;10.928;2023-03-01T15:00:22;6.20;99.90
5881;DHT22;2966;52.598;10.928;2023-03-01T15:02:51;6.10;99.90
5881;DHT22;2966;52.598;10.928;2023-03-01T15:05:25;6.00;99.90
5881;DHT22;2966;52.598;10.928;2023-03-01T15:07:53;6.10;99.90
5881;DHT22;2966;52.598;10.928;2023-03-01T15:10:22;6.00;99.90
5881;DHT22;2966;52.598;10.928;2023-03-01T15:12:50;6.00;99.90
5881;DHT22;2966;52.598;10.928;2023-03-01T15:15:38;6.00;99.90
5881;DHT22;2966;52.598;10.928;2023-03-01T15:18:14;5.90;99.90
5881;DHT22;2966;52.598;10.928;2023-03-01T15:20:42;5.80;99.90
5881;DHT22;2966;52.598;10.928;2023-03-01T15:23:19;5.70;99.90
5881;DHT22;2966;52.598;10.928;2023-03-01T15:25:47;5.60;99.90
5881;DHT22;2966;52.598;10.928;2023-03-01T15:28:24;5.60;99.90
5881;DHT22;2966;52.598;10.928;2023-03-01T15:30:57;5.50;99.90
5881;DHT22;2966;52.598;10.928;2023-03-01T15:33:35;5.50;99.90
5881;DHT22;2966;52.598;10.928;2023-03-01T15:36:29;5.50;99.90
5881;DHT22;2966;52.598;10.928;2023-03-01T15:38:59;5.50;99.90
5881;DHT22;2966;52.598;10.928;2023-03-01T15:41:28;5.40;99.90
5881;DHT22;2966;52.598;10.928;2023-03-01T15:43:58;5.30;99.90
5881;DHT22;2966;52.598;10.928;2023-03-01T15:46:28;5.30;99.90
5881;DHT22;2966;52.598;10.928;2023-03-01T15:48:59;5.20;99.90
5881;DHT22;2966;52.598;10.928;2023-03-01T15:51:32;5.20;99.90
5881;DHT22;2966;52.598;10.928;2023-03-01T15:54:02;5.20;99.90
5881;DHT22;2966;52.598;10.928;2023-03-01T15:56:30;5.10;99.90
5881;DHT22;2966;52.598;10.928;2023-03-01T15:59:01;5.10;99.90
5881;DHT22;2966;52.598;10.928;2023-03-01T16:01:34;5.00;99.90
5881;DHT22;2966;52.598;10.928;2023-03-01T16:04:03;4.90;99.90
5881;DHT22;2966;52.598;10.928;2023-03-01T16:06:30;4.90;99.90
5881;DHT22;2966;52.598;10.928;2023-03-01T16:08:57;4.80;99.90
5881;DHT22;2966;52.598;10.928;2023-03-01T16:11:24;4.70;99.90
5881;DHT22;2966;52.598;10.928;2023-03-01T16:13:53;4.70;99.90
5881;DHT22;2966;52.598;10.928;2023-03-01T16:16:20;4.60;99.90
5881;DHT22;2966;52.598;10.928;2023-03-01T16:18:49;4.60;99.90
5881;DHT22;2966;52.598;10.928;2023-03-01T16:21:20;4.50;99.90
5881;DHT22;2966;52.598;10.928;2023-03-01T16:23:47;4.30;99.90
5881;DHT22;2966;52.598;10.928;2023-03-01T16:26:16;4.30;99.90
5881;DHT22;2966;52.598;10.928;2023-03-01T16:28:45;4.30;99.90